Sealyon — 2CGJ2 — position and weather

sailwx.info

Track history (hours):
 
Tides and Currents Weather Stations Pressure Air Temp Water Temp Dewpoint Dewpoint Depression Visibility Wind Speed Wind Dir Waves Ship Positions

Sealyon

Last reported at 2015-Jul-05 14:27 UTC. Time now 2015-Jul-06 00:57 UTC.
Position N 40°32' E 014°15'.

Length 62 m; draft 3.3 m.

Type: Pleasure craft. MMSI: 235072538.

Date/timePositionNaut miles runAvg speedWind from/ knotsBaromVisibWave heightAir tempDewpointWater temp
2015-Jul-05 14:27N 40°32' E 014°15'0 0.0
2015-Jul-05 13:33N 40°32' E 014°15'0 0.0
2015-Jul-05 12:33N 40°32' E 014°15'0 0.2
2015-Jul-05 11:33N 40°32' E 014°15'2 2.0
2015-Jul-05 10:33N 40°34' E 014°14'0 0.0
2015-Jul-05 09:32N 40°34' E 014°14'0 0.0
2015-Jul-05 08:33N 40°34' E 014°14'0 0.4
2015-Jul-05 07:33N 40°34' E 014°13'1212.1
2015-Jul-05 06:33N 40°42' E 014°01'7 6.8
2015-Jul-05 05:33N 40°45' E 013°53'0 0.0
2015-Jul-05 04:33N 40°45' E 013°53'0 0.0
2015-Jul-05 03:33N 40°45' E 013°53'0 0.0
2015-Jul-05 02:33N 40°45' E 013°53'0 0.0
2015-Jul-05 01:33N 40°45' E 013°53'0 0.0
2015-Jul-05 00:33N 40°45' E 013°53'0 0.0
2015-Jul-04 23:33N 40°45' E 013°53'0 0.0
2015-Jul-04 22:33N 40°45' E 013°53'0 0.0
2015-Jul-04 21:33N 40°45' E 013°53'0 0.0
2015-Jul-04 20:33N 40°45' E 013°53'0 0.0
2015-Jul-04 19:33N 40°45' E 013°53'0 0.0
2015-Jul-04 18:33N 40°45' E 013°53'0 0.0
2015-Jul-04 17:33N 40°45' E 013°53'0 0.0
2015-Jul-04 16:33N 40°45' E 013°53'0 0.0
2015-Jul-04 15:33N 40°45' E 013°53'0 0.0
2015-Jul-04 14:33N 40°45' E 013°53'0 0.0
2015-Jul-04 13:33N 40°45' E 013°53'0 0.0
2015-Jul-04 12:33N 40°45' E 013°53'0 0.0
2015-Jul-04 11:33N 40°45' E 013°53'0 0.0
2015-Jul-04 10:33N 40°45' E 013°53'0 0.0
2015-Jul-04 09:33N 40°45' E 013°53'0 0.1
2015-Jul-04 08:33N 40°45' E 013°53'1110.7
2015-Jul-04 07:33N 40°49' E 013°40'32 3.2
2015-Jul-03 21:33N 40°55' E 012°58'0 0.0
2015-Jul-03 20:33N 40°55' E 012°58'0 0.0
2015-Jul-03 19:33N 40°55' E 012°58'0 0.0
2015-Jul-03 18:29N 40°55' E 012°58'0 0.0
2015-Jul-03 17:33N 40°55' E 012°58'0 0.0
2015-Jul-03 16:29N 40°55' E 012°58'0 0.0
2015-Jul-03 15:33N 40°55' E 012°58'0 0.0
2015-Jul-03 14:31N 40°55' E 012°58'2010.2
2015-Jul-03 12:31N 41°09' E 012°39'1514.0
2015-Jul-03 11:24N 41°22' E 012°29'29 0.6
2015-Jul-01 12:05N 41°45' E 012°05'1113.9
2015-Jul-01 11:19N 41°50' E 011°52'1113.8
2015-Jul-01 10:32N 41°55' E 011°39'6014.0
2015-Jul-01 06:15N 42°26' E 010°30'1114.2
2015-Jul-01 05:30N 42°33' E 010°19'3114.1
2015-Jul-01 03:19N 42°52' E 009°47'1114.0
2015-Jul-01 02:33N 42°59' E 009°36'1414.1
2015-Jul-01 01:33N 43°06' E 009°19'1514.6
2015-Jul-01 00:33N 43°12' E 009°01'1414.4
2015-Jun-30 23:33N 43°18' E 008°43'1413.9
2015-Jun-30 22:33N 43°24' E 008°26'1413.8
2015-Jun-30 21:33N 43°29' E 008°08'1313.5
2015-Jun-30 20:33N 43°35' E 007°52'21 5.2
2015-Jun-30 16:32N 43°44' E 007°25'0 0.0
2015-Jun-30 14:09N 43°44' E 007°25'0 0.0
2015-Jun-30 10:24N 43°44' E 007°25'0 0.0
2015-Jun-29 17:23N 43°44' E 007°25'0 0.0
2015-Jun-29 16:34N 43°44' E 007°25'3 3.3
2015-Jun-29 15:33N 43°42' E 007°21'1 0.5
2015-Jun-29 14:29N 43°43' E 007°21'0 0.0
2015-Jun-29 10:16N 43°43' E 007°21'0 0.0
2015-Jun-28 22:04N 43°43' E 007°21'0 0.0
2015-Jun-28 21:22N 43°43' E 007°21'0 0.0
2015-Jun-28 20:29N 43°43' E 007°21'0 0.0
2015-Jun-28 18:30N 43°43' E 007°21'0 0.0
2015-Jun-28 17:13N 43°43' E 007°21'0 0.0
2015-Jun-28 16:21N 43°43' E 007°21'0 0.0
2015-Jun-28 15:33N 43°43' E 007°21'9 8.7
2015-Jun-28 14:33N 43°35' E 007°14'33 4.0
2015-Jun-28 06:25N 43°16' E 006°38'0 0.0
2015-Jun-27 23:32N 43°16' E 006°38'0 0.0
2015-Jun-27 21:28N 43°16' E 006°38'0 0.0
2015-Jun-27 20:22N 43°16' E 006°38'0 0.0
2015-Jun-27 19:32N 43°16' E 006°38'0 0.0
2015-Jun-27 18:33N 43°16' E 006°38'0 0.0
2015-Jun-27 17:27N 43°16' E 006°38'0 0.0
2015-Jun-27 11:28N 43°16' E 006°37'51 4.1
2015-Jun-26 23:05N 43°01' E 007°44'2214.0
2015-Jun-26 21:32N 42°54' E 008°12'1514.3
2015-Jun-26 20:31N 42°49' E 008°31'20 2.2
2015-Jun-26 11:19N 42°39' E 008°55'  
Track history (hours):
 
Tides and Currents Weather Stations Pressure Air Temp Water Temp Dewpoint Dewpoint Depression Visibility Wind Speed Wind Dir Waves Ship Positions

Sealyon

Last reported at 2015-Jul-05 14:27 UTC. Time now 2015-Jul-06 00:57 UTC.
Position N 40°32' E 014°15'.

Length 62 m; draft 3.3 m.

Type: Pleasure craft. MMSI: 235072538.

Date/timePositionNaut miles runAvg speedWind from/ knotsBaromVisibWave heightAir tempDewpointWater temp
2015-Jul-05 14:27N 40°32' E 014°15'0 0.0
2015-Jul-05 13:33N 40°32' E 014°15'0 0.0
2015-Jul-05 12:33N 40°32' E 014°15'0 0.2
2015-Jul-05 11:33N 40°32' E 014°15'2 2.0
2015-Jul-05 10:33N 40°34' E 014°14'0 0.0
2015-Jul-05 09:32N 40°34' E 014°14'0 0.0
2015-Jul-05 08:33N 40°34' E 014°14'0 0.4
2015-Jul-05 07:33N 40°34' E 014°13'1212.1
2015-Jul-05 06:33N 40°42' E 014°01'7 6.8
2015-Jul-05 05:33N 40°45' E 013°53'0 0.0
2015-Jul-05 04:33N 40°45' E 013°53'0 0.0
2015-Jul-05 03:33N 40°45' E 013°53'0 0.0
2015-Jul-05 02:33N 40°45' E 013°53'0 0.0
2015-Jul-05 01:33N 40°45' E 013°53'0 0.0
2015-Jul-05 00:33N 40°45' E 013°53'0 0.0
2015-Jul-04 23:33N 40°45' E 013°53'0 0.0
2015-Jul-04 22:33N 40°45' E 013°53'0 0.0
2015-Jul-04 21:33N 40°45' E 013°53'0 0.0
2015-Jul-04 20:33N 40°45' E 013°53'0 0.0
2015-Jul-04 19:33N 40°45' E 013°53'0 0.0
2015-Jul-04 18:33N 40°45' E 013°53'0 0.0
2015-Jul-04 17:33N 40°45' E 013°53'0 0.0
2015-Jul-04 16:33N 40°45' E 013°53'0 0.0
2015-Jul-04 15:33N 40°45' E 013°53'0 0.0
2015-Jul-04 14:33N 40°45' E 013°53'0 0.0
2015-Jul-04 13:33N 40°45' E 013°53'0 0.0
2015-Jul-04 12:33N 40°45' E 013°53'0 0.0
2015-Jul-04 11:33N 40°45' E 013°53'0 0.0
2015-Jul-04 10:33N 40°45' E 013°53'0 0.0
2015-Jul-04 09:33N 40°45' E 013°53'0 0.1
2015-Jul-04 08:33N 40°45' E 013°53'1110.7
2015-Jul-04 07:33N 40°49' E 013°40'32 3.2
2015-Jul-03 21:33N 40°55' E 012°58'0 0.0
2015-Jul-03 20:33N 40°55' E 012°58'0 0.0
2015-Jul-03 19:33N 40°55' E 012°58'0 0.0
2015-Jul-03 18:29N 40°55' E 012°58'0 0.0
2015-Jul-03 17:33N 40°55' E 012°58'0 0.0
2015-Jul-03 16:29N 40°55' E 012°58'0 0.0
2015-Jul-03 15:33N 40°55' E 012°58'0 0.0
2015-Jul-03 14:31N 40°55' E 012°58'2010.2
2015-Jul-03 12:31N 41°09' E 012°39'1514.0
2015-Jul-03 11:24N 41°22' E 012°29'29 0.6
2015-Jul-01 12:05N 41°45' E 012°05'1113.9
2015-Jul-01 11:19N 41°50' E 011°52'1113.8
2015-Jul-01 10:32N 41°55' E 011°39'6014.0
2015-Jul-01 06:15N 42°26' E 010°30'1114.2
2015-Jul-01 05:30N 42°33' E 010°19'3114.1
2015-Jul-01 03:19N 42°52' E 009°47'1114.0
2015-Jul-01 02:33N 42°59' E 009°36'1414.1
2015-Jul-01 01:33N 43°06' E 009°19'1514.6
2015-Jul-01 00:33N 43°12' E 009°01'1414.4
2015-Jun-30 23:33N 43°18' E 008°43'1413.9
2015-Jun-30 22:33N 43°24' E 008°26'1413.8
2015-Jun-30 21:33N 43°29' E 008°08'1313.5
2015-Jun-30 20:33N 43°35' E 007°52'21 5.2
2015-Jun-30 16:32N 43°44' E 007°25'0 0.0
2015-Jun-30 14:09N 43°44' E 007°25'0 0.0
2015-Jun-30 10:24N 43°44' E 007°25'0 0.0
2015-Jun-29 17:23N 43°44' E 007°25'0 0.0
2015-Jun-29 16:34N 43°44' E 007°25'3 3.3
2015-Jun-29 15:33N 43°42' E 007°21'1 0.5
2015-Jun-29 14:29N 43°43' E 007°21'0 0.0
2015-Jun-29 10:16N 43°43' E 007°21'0 0.0
2015-Jun-28 22:04N 43°43' E 007°21'0 0.0
2015-Jun-28 21:22N 43°43' E 007°21'0 0.0
2015-Jun-28 20:29N 43°43' E 007°21'0 0.0
2015-Jun-28 18:30N 43°43' E 007°21'0 0.0
2015-Jun-28 17:13N 43°43' E 007°21'0 0.0
2015-Jun-28 16:21N 43°43' E 007°21'0 0.0
2015-Jun-28 15:33N 43°43' E 007°21'9 8.7
2015-Jun-28 14:33N 43°35' E 007°14'33 4.0
2015-Jun-28 06:25N 43°16' E 006°38'0 0.0
2015-Jun-27 23:32N 43°16' E 006°38'0 0.0
2015-Jun-27 21:28N 43°16' E 006°38'0 0.0
2015-Jun-27 20:22N 43°16' E 006°38'0 0.0
2015-Jun-27 19:32N 43°16' E 006°38'0 0.0
2015-Jun-27 18:33N 43°16' E 006°38'0 0.0
2015-Jun-27 17:27N 43°16' E 006°38'0 0.0
2015-Jun-27 11:28N 43°16' E 006°37'51 4.1
2015-Jun-26 23:05N 43°01' E 007°44'2214.0
2015-Jun-26 21:32N 42°54' E 008°12'1514.3
2015-Jun-26 20:31N 42°49' E 008°31'20 2.2
2015-Jun-26 11:19N 42°39' E 008°55'  

Dump ship's entire track history